Impacts TAF Board
For situational awareness. Not to be used for flight planning purposes.
IDs:

KABQ - Albuquerque Intl, NM, US

Issued at 1120 UTC 30 Oct 2020
Updated at 1700 UTC 30 Oct 2020
Potential Impact None Slight Moderate High
Time1652Z 30/17Z 30/18Z 30/19Z 30/20Z 30/21Z 30/22Z 30/23Z 31/00Z 31/01Z 31/02Z 31/03Z 31/04Z 31/05Z>>
Type OBS PRVL PRVL PRVL PRVL PRVL PRVL PRVL PRVL PRVL PRVL PRVL PRVL PRVL
VIS 10 >6 >6 >6 >6 >6 >6 >6 >6 >6 >6 >6 >6 >6
CIG -- -- -- -- -- -- -- -- -- -- -- -- -- --
Cover SCT SCT SCT SCT SCT SCT SCT SCT SCT SCT SCT SCT SCT SCT
FltCat VFR VFR VFR VFR VFR VFR VFR VFR VFR VFR VFR VFR VFR VFR
WX -- -- -- -- -- -- -- -- -- -- -- -- -- --
WDir VRB VRB VRB VRB VRB VRB VRB VRB VRB VRB VRB VRB VRB VRB
WSpd 0 6 6 6 6 6 6 6 6 6 6 6 6 6
WGst -- -- -- -- -- -- -- -- -- -- -- -- -- --
Raw TAF
KABQ 301120Z 3012/3112 VRB06KT P6SM SCT250

Raw METAR
KABQ 301652Z 00000KT 10SM FEW200 SCT250 10/02 A3033 RMK AO2 SLP247 T01000022
KABQ 301552Z 00000KT 10SM FEW120 SCT250 08/02 A3034 RMK AO2 SLP252 T00780022
KABQ 301452Z 00000KT 10SM FEW120 SCT250 06/01 A3033 RMK AO2 SLP251 T00560011 53006
KABQ 301352Z 36004KT 10SM SCT250 04/01 A3032 RMK AO2 SLP247 T00390006

METAR Board
Radar Display
Forecast Discussion
For situational awareness. Not to be used for flight planning purposes.